Time;durP1;ratioP1;P1;durP2;ratioP2;P2;SDS_P1;SDS_P2;PMS_P1;PMS_P2;Temp;Humidity;BMP_temperature;BMP_pressure;BME280_temperature;BME280_humidity;BME280_pressure;Samples;Min_cycle;Max_cycle;Signal;HPM_P1;HPM_P2
2022/11/24 00:01:24;;;;;;;19.45;3.67;;;5.30;99.90;;;;;;4977012;28;20547;-67
2022/11/24 00:04:10;;;;;;;11.55;3.05;;;5.40;99.90;;;;;;4971669;28;20046;-67
2022/11/24 00:06:36;;;;;;;14.23;3.63;;;5.50;99.90;;;;;;4976904;28;20058;-67
2022/11/24 00:09:03;;;;;;;16.60;3.30;;;5.50;99.90;;;;;;4978968;28;20062;-67
2022/11/24 00:11:31;;;;;;;21.38;3.60;;;5.50;99.90;;;;;;4979080;28;20564;-67
2022/11/24 00:13:58;;;;;;;18.05;2.67;;;5.40;99.90;;;;;;4978521;28;20053;-67
2022/11/24 00:16:26;;;;;;;12.35;2.92;;;5.30;99.90;;;;;;4990980;28;20034;-67
2022/11/24 00:18:54;;;;;;;6.53;2.13;;;5.30;99.90;;;;;;4984270;28;20121;-67
2022/11/24 00:21:20;;;;;;;10.05;2.67;;;5.20;99.90;;;;;;4986253;28;20031;-67
2022/11/24 00:23:47;;;;;;;12.57;2.58;;;5.10;99.90;;;;;;4981511;28;20069;-67
2022/11/24 00:26:15;;;;;;;12.55;2.80;;;5.00;99.90;;;;;;4984776;28;20038;-68
2022/11/24 00:28:41;;;;;;;9.50;2.40;;;5.00;99.90;;;;;;4983712;28;20452;-67
2022/11/24 00:31:22;;;;;;;14.25;2.50;;;4.90;99.90;;;;;;4984151;28;20046;-67
2022/11/24 00:33:53;;;;;;;9.77;2.40;;;4.90;99.90;;;;;;4978926;28;20058;-67
2022/11/24 00:36:20;;;;;;;13.98;3.13;;;4.80;99.90;;;;;;4976832;28;20026;-67
2022/11/24 00:38:46;;;;;;;16.45;3.88;;;4.70;99.90;;;;;;4990261;28;20025;-68
2022/11/24 00:41:12;;;;;;;13.43;2.85;;;4.80;99.90;;;;;;4998848;28;20514;-67
2022/11/24 00:43:38;;;;;;;16.15;3.08;;;4.70;99.90;;;;;;4985681;28;20030;-67
2022/11/24 00:46:04;;;;;;;12.18;2.72;;;4.70;99.90;;;;;;4984138;28;20612;-67
2022/11/24 00:48:30;;;;;;;17.90;3.15;;;4.70;99.90;;;;;;4983158;28;20041;-67
2022/11/24 00:51:08;;;;;;;18.83;3.60;;;4.70;99.90;;;;;;4980032;28;20069;-68
2022/11/24 00:53:34;;;;;;;18.15;3.25;;;4.70;99.90;;;;;;4974592;28;20555;-68
2022/11/24 00:56:00;;;;;;;12.88;3.03;;;4.70;99.90;;;;;;4977541;28;20511;-67
2022/11/24 00:58:25;;;;;;;14.23;2.97;;;4.70;99.90;;;;;;4978899;28;20515;-67
2022/11/24 01:00:51;;;;;;;12.75;2.58;;;4.60;99.90;;;;;;4987274;28;20034;-67
2022/11/24 01:03:19;;;;;;;15.25;2.88;;;4.60;99.90;;;;;;4974516;28;20027;-67
2022/11/24 01:05:44;;;;;;;14.50;2.97;;;4.60;99.90;;;;;;4982639;28;20077;-67
2022/11/24 01:08:10;;;;;;;15.40;3.53;;;4.50;99.90;;;;;;4979756;28;20034;-67
2022/11/24 01:10:36;;;;;;;8.52;2.45;;;4.60;99.90;;;;;;4985915;28;20026;-67
2022/11/24 01:13:02;;;;;;;18.27;2.95;;;4.50;99.90;;;;;;4975464;28;20045;-67
2022/11/24 01:15:29;;;;;;;17.23;3.03;;;4.50;99.90;;;;;;4988823;28;20113;-67
2022/11/24 01:17:55;;;;;;;17.83;3.30;;;4.50;99.90;;;;;;4980384;28;20478;-67
2022/11/24 01:20:20;;;;;;;24.05;4.05;;;4.50;99.90;;;;;;4978510;28;20038;-68
2022/11/24 01:22:47;;;;;;;18.45;3.13;;;4.50;99.90;;;;;;4974415;28;20030;-66
2022/11/24 01:25:14;;;;;;;20.90;3.20;;;4.60;99.90;;;;;;4981357;28;20143;-67
2022/11/24 01:27:40;;;;;;;23.58;3.47;;;4.60;99.90;;;;;;4984591;28;20027;-67
2022/11/24 01:30:06;;;;;;;16.33;2.78;;;4.60;99.90;;;;;;4993108;28;20038;-67
2022/11/24 01:32:34;;;;;;;21.25;2.83;;;4.80;99.90;;;;;;4982504;28;20034;-68
2022/11/24 01:35:02;;;;;;;30.60;4.00;;;4.80;99.90;;;;;;4972452;28;20202;-67
2022/11/24 01:37:28;;;;;;;22.70;3.35;;;4.90;99.90;;;;;;4975234;28;20064;-67
2022/11/24 01:39:54;;;;;;;17.13;3.35;;;4.90;99.90;;;;;;4975816;28;20460;-67
2022/11/24 01:42:19;;;;;;;23.40;5.10;;;4.90;99.90;;;;;;4975754;28;20404;-66
2022/11/24 01:44:47;;;;;;;20.83;3.15;;;4.90;99.90;;;;;;4983778;28;20031;-67
2022/11/24 01:47:35;;;;;;;20.92;2.80;;;4.90;99.90;;;;;;4974782;28;20023;-67
2022/11/24 01:50:03;;;;;;;23.73;3.13;;;4.90;99.90;;;;;;4977801;28;20101;-67
2022/11/24 01:52:46;;;;;;;23.02;3.22;;;5.00;99.90;;;;;;4976362;28;20113;-67
2022/11/24 01:55:17;;;;;;;17.10;3.03;;;5.10;99.90;;;;;;4979876;28;20385;-67
2022/11/24 01:58:11;;;;;;;19.40;3.13;;;5.20;99.90;;;;;;4980709;28;20030;-66
2022/11/24 02:00:39;;;;;;;14.43;2.40;;;5.20;99.90;;;;;;4980475;28;20039;-67
2022/11/24 02:03:06;;;;;;;18.60;2.35;;;5.30;99.90;;;;;;4984575;28;20154;-67
2022/11/24 02:05:39;;;;;;;20.35;3.80;;;5.50;99.90;;;;;;4965432;28;20046;-67
2022/11/24 02:08:13;;;;;;;18.60;3.10;;;5.60;99.90;;;;;;4984699;28;20623;-68
2022/11/24 02:10:38;;;;;;;22.75;3.20;;;5.70;99.90;;;;;;4984603;28;20507;-66
2022/11/24 02:13:04;;;;;;;29.83;3.58;;;5.70;99.90;;;;;;4983860;28;20037;-67
2022/11/24 02:15:31;;;;;;;15.70;2.67;;;5.70;99.90;;;;;;4982836;28;20041;-67
2022/11/24 02:17:58;;;;;;;19.70;2.55;;;5.70;99.90;;;;;;4989050;28;20042;-67
2022/11/24 02:20:25;;;;;;;27.73;4.03;;;5.70;99.90;;;;;;4992742;28;20023;-67
2022/11/24 02:23:13;;;;;;;33.00;3.35;;;5.80;99.90;;;;;;4982661;28;20094;-68
2022/11/24 02:26:02;;;;;;;17.45;2.38;;;5.90;99.90;;;;;;4974614;28;20019;-67
2022/11/24 02:28:29;;;;;;;26.08;5.18;;;6.00;99.90;;;;;;4981902;28;20468;-68
2022/11/24 02:30:56;;;;;;;29.15;3.47;;;6.10;99.90;;;;;;4981905;28;20113;-67
2022/11/24 02:33:21;;;;;;;26.40;4.07;;;6.20;99.90;;;;;;4982918;28;20027;-68
2022/11/24 02:35:47;;;;;;;19.75;3.75;;;6.30;99.90;;;;;;4978546;28;20030;-67
2022/11/24 02:38:13;;;;;;;30.27;3.00;;;6.40;99.90;;;;;;4981631;28;20121;-67
2022/11/24 02:40:42;;;;;;;17.52;3.00;;;6.50;99.90;;;;;;4975742;28;20488;-66
2022/11/24 02:43:12;;;;;;;25.83;3.70;;;6.50;99.90;;;;;;4978343;28;20041;-67
2022/11/24 02:45:38;;;;;;;23.48;4.25;;;6.60;99.90;;;;;;4974680;28;20094;-67
2022/11/24 02:48:04;;;;;;;12.10;2.15;;;6.60;99.90;;;;;;4980406;28;20161;-67
2022/11/24 02:50:29;;;;;;;21.83;2.70;;;6.60;99.90;;;;;;4979449;28;20574;-67
2022/11/24 02:52:55;;;;;;;27.50;3.58;;;6.50;99.90;;;;;;4980811;28;20101;-67
2022/11/24 02:55:20;;;;;;;31.75;3.72;;;6.60;99.90;;;;;;4975378;28;20031;-68
2022/11/24 02:57:46;;;;;;;23.33;2.78;;;6.60;99.90;;;;;;4982571;28;20030;-67
2022/11/24 03:00:12;;;;;;;15.68;2.45;;;6.60;99.90;;;;;;4981925;28;20030;-67
2022/11/24 03:02:39;;;;;;;22.13;3.55;;;6.60;99.90;;;;;;4981040;28;20026;-67
2022/11/24 03:05:05;;;;;;;16.83;2.00;;;6.60;99.90;;;;;;4953412;28;20039;-66
2022/11/24 03:07:30;;;;;;;22.00;3.00;;;6.50;99.90;;;;;;4987263;28;20794;-67
2022/11/24 03:09:56;;;;;;;17.05;2.30;;;6.50;99.90;;;;;;4989464;28;20037;-67
2022/11/24 03:12:21;;;;;;;21.38;2.50;;;6.50;99.90;;;;;;4983546;28;20023;-67
2022/11/24 03:14:47;;;;;;;15.30;1.88;;;6.40;99.90;;;;;;4983789;28;20498;-67
2022/11/24 03:17:12;;;;;;;26.30;2.72;;;6.30;99.90;;;;;;4986116;28;20551;-67
2022/11/24 03:19:38;;;;;;;25.17;2.80;;;6.20;99.90;;;;;;4988724;28;20022;-67
2022/11/24 03:22:04;;;;;;;17.52;2.80;;;6.10;99.90;;;;;;4982016;28;20445;-67
2022/11/24 03:24:29;;;;;;;31.55;3.25;;;6.00;99.90;;;;;;4981067;28;20733;-67
2022/11/24 03:26:55;;;;;;;16.48;2.67;;;6.00;99.90;;;;;;4977774;28;20034;-67
2022/11/24 03:29:21;;;;;;;14.13;2.40;;;6.00;99.90;;;;;;4980803;28;20081;-67
2022/11/24 03:31:47;;;;;;;19.52;2.45;;;6.00;99.90;;;;;;4975305;28;20025;-67
2022/11/24 03:34:12;;;;;;;15.40;2.13;;;6.10;99.90;;;;;;4981325;28;20034;-67
2022/11/24 03:36:38;;;;;;;15.63;3.08;;;6.10;99.90;;;;;;4978508;28;20067;-68
2022/11/24 03:39:03;;;;;;;16.60;2.88;;;6.10;99.90;;;;;;4978606;28;20085;-68
2022/11/24 03:41:29;;;;;;;13.85;3.10;;;6.10;99.90;;;;;;4980524;28;20023;-67
2022/11/24 03:43:55;;;;;;;13.93;3.72;;;6.20;99.90;;;;;;4973076;28;20041;-67
2022/11/24 03:46:20;;;;;;;21.30;3.35;;;6.20;99.90;;;;;;4981088;28;20026;-68
2022/11/24 03:48:46;;;;;;;14.80;3.75;;;6.30;99.90;;;;;;4973025;28;20123;-67
2022/11/24 03:51:11;;;;;;;24.27;2.63;;;6.30;99.90;;;;;;4976283;28;20069;-67
2022/11/24 03:53:37;;;;;;;15.18;2.88;;;6.30;99.90;;;;;;4981836;28;20019;-67
2022/11/24 03:56:03;;;;;;;23.73;2.92;;;6.40;99.90;;;;;;4982646;28;20026;-67
2022/11/24 03:58:29;;;;;;;19.67;2.17;;;6.50;99.90;;;;;;4987197;28;20069;-67
2022/11/24 04:00:55;;;;;;;22.20;3.83;;;6.60;99.90;;;;;;4969191;28;20468;-67
2022/11/24 04:03:22;;;;;;;34.85;5.78;;;6.70;99.90;;;;;;4981722;28;20041;-67
2022/11/24 04:05:47;;;;;;;17.20;2.85;;;6.70;99.90;;;;;;4971504;28;20504;-66
2022/11/24 04:08:13;;;;;;;34.50;4.20;;;6.80;99.90;;;;;;4986931;28;20034;-68
2022/11/24 04:10:39;;;;;;;33.05;4.30;;;6.80;99.90;;;;;;4989025;28;20365;-68
2022/11/24 04:13:14;;;;;;;21.27;2.47;;;6.80;99.90;;;;;;4976568;28;20034;-66
2022/11/24 04:15:42;;;;;;;21.55;2.88;;;6.80;99.90;;;;;;4981761;28;20031;-67
2022/11/24 04:18:09;;;;;;;16.23;4.05;;;6.80;99.90;;;;;;4979172;28;20029;-67
2022/11/24 04:20:35;;;;;;;19.27;2.47;;;6.90;99.90;;;;;;4981799;28;20443;-67
2022/11/24 04:23:01;;;;;;;23.83;3.97;;;6.90;99.90;;;;;;4986134;28;20084;-68
2022/11/24 04:25:26;;;;;;;32.40;3.75;;;6.90;99.90;;;;;;4974640;28;20022;-67
2022/11/24 04:27:53;;;;;;;23.70;2.78;;;6.90;99.90;;;;;;4978718;28;20412;-67
2022/11/24 04:30:20;;;;;;;19.30;3.15;;;6.80;99.90;;;;;;4974534;28;20030;-67
2022/11/24 04:32:46;;;;;;;17.80;2.30;;;6.90;99.90;;;;;;4984575;28;20031;-68
2022/11/24 04:35:12;;;;;;;22.50;3.38;;;6.90;99.90;;;;;;4980648;28;20489;-67
2022/11/24 04:37:37;;;;;;;22.45;3.50;;;6.90;99.90;;;;;;4977369;28;20037;-67
2022/11/24 04:40:05;;;;;;;25.85;4.85;;;7.00;99.90;;;;;;4980948;28;20053;-67
2022/11/24 04:42:30;;;;;;;28.73;4.03;;;7.00;99.90;;;;;;4977212;28;20041;-66
2022/11/24 04:44:56;;;;;;;25.70;3.33;;;7.10;99.90;;;;;;4983615;28;20512;-67
2022/11/24 04:47:23;;;;;;;23.90;3.22;;;7.10;99.90;;;;;;4980601;28;20030;-67
2022/11/24 04:49:49;;;;;;;26.65;4.85;;;7.20;99.90;;;;;;4981127;28;20030;-67
2022/11/24 04:52:20;;;;;;;16.55;2.83;;;7.20;99.90;;;;;;4988465;28;20523;-67
2022/11/24 04:54:46;;;;;;;30.23;3.45;;;7.20;99.90;;;;;;4978024;28;20073;-67
2022/11/24 04:57:17;;;;;;;13.35;3.65;;;7.20;99.90;;;;;;4982634;28;20030;-67
2022/11/24 04:59:43;;;;;;;26.23;4.07;;;7.30;99.90;;;;;;4979577;28;20496;-68
2022/11/24 05:02:09;;;;;;;15.50;3.00;;;7.30;99.90;;;;;;4982003;28;20033;-67
2022/11/24 05:04:35;;;;;;;15.10;2.70;;;7.30;99.90;;;;;;4972469;28;20627;-67
2022/11/24 05:07:01;;;;;;;15.65;4.03;;;7.30;99.90;;;;;;4982358;28;20106;-67
2022/11/24 05:09:26;;;;;;;16.23;2.03;;;7.40;99.90;;;;;;4980807;28;20106;-67
2022/11/24 05:11:52;;;;;;;23.15;3.45;;;7.40;99.90;;;;;;4984333;28;20520;-67
2022/11/24 05:14:17;;;;;;;13.63;3.03;;;7.40;99.90;;;;;;4977891;28;20030;-67
2022/11/24 05:16:43;;;;;;;23.60;3.33;;;7.40;99.90;;;;;;4984917;28;20031;-67
2022/11/24 05:19:08;;;;;;;17.40;2.67;;;7.50;99.90;;;;;;4986251;28;20488;-67
2022/11/24 05:21:34;;;;;;;26.42;3.00;;;7.50;99.90;;;;;;4980111;28;20054;-67
2022/11/24 05:23:59;;;;;;;13.30;2.78;;;7.50;99.90;;;;;;4983259;28;20033;-66
2022/11/24 05:26:26;;;;;;;20.10;2.90;;;7.50;99.90;;;;;;4981804;28;20043;-67
2022/11/24 05:28:52;;;;;;;15.02;3.20;;;7.50;99.90;;;;;;4990223;28;20045;-67
2022/11/24 05:31:17;;;;;;;18.20;3.17;;;7.50;99.90;;;;;;4993132;28;20087;-67
2022/11/24 05:33:44;;;;;;;15.25;3.30;;;7.50;99.90;;;;;;4986175;28;20015;-67
2022/11/24 05:36:51;;;;;;;22.08;3.05;;;7.50;99.90;;;;;;4984797;28;20101;-67
2022/11/24 05:38:59;;;;;;;19.73;3.38;;;7.50;99.90;;;;;;4981698;28;20042;-68
2022/11/24 05:41:25;;;;;;;23.40;2.70;;;7.50;99.90;;;;;;4990384;28;20030;-67
2022/11/24 05:43:50;;;;;;;15.93;2.42;;;7.50;99.90;;;;;;4984302;28;20038;-66
2022/11/24 05:46:16;;;;;;;16.48;3.03;;;7.50;99.90;;;;;;4982226;28;20034;-67
2022/11/24 05:48:41;;;;;;;16.73;2.70;;;7.50;99.90;;;;;;4980132;28;20073;-67
2022/11/24 05:51:07;;;;;;;16.40;2.65;;;7.50;99.90;;;;;;4989473;28;20053;-67
2022/11/24 05:53:33;;;;;;;18.67;2.70;;;7.50;99.90;;;;;;4983035;28;20026;-67
2022/11/24 05:56:02;;;;;;;22.80;2.75;;;7.50;99.90;;;;;;4993156;28;20050;-67
2022/11/24 05:58:27;;;;;;;20.60;2.42;;;7.60;99.90;;;;;;4990717;28;20077;-67
2022/11/24 06:00:53;;;;;;;17.33;2.38;;;7.60;99.90;;;;;;4997012;28;20384;-67
2022/11/24 06:03:18;;;;;;;12.02;2.95;;;7.60;99.90;;;;;;4997873;28;20545;-67
2022/11/24 06:05:45;;;;;;;16.10;2.67;;;7.60;99.90;;;;;;4969337;28;20527;-67
2022/11/24 06:08:11;;;;;;;23.17;3.45;;;7.60;99.90;;;;;;4982424;28;20023;-67
2022/11/24 06:10:37;;;;;;;14.98;2.10;;;7.60;99.90;;;;;;4986440;28;20041;-67
2022/11/24 06:13:06;;;;;;;14.35;2.70;;;7.60;99.90;;;;;;4986045;28;20026;-67
2022/11/24 06:15:33;;;;;;;19.75;3.03;;;7.60;99.90;;;;;;4979818;28;20404;-67
2022/11/24 06:17:58;;;;;;;15.02;2.33;;;7.60;99.90;;;;;;4983001;28;20161;-67
2022/11/24 06:20:24;;;;;;;24.30;3.50;;;7.60;99.90;;;;;;4984089;28;20105;-67
2022/11/24 06:22:49;;;;;;;18.15;3.05;;;7.60;99.90;;;;;;4988159;28;20045;-67
2022/11/24 06:25:15;;;;;;;16.27;2.90;;;7.60;99.90;;;;;;4986303;28;20038;-67
2022/11/24 06:27:41;;;;;;;26.45;5.88;;;7.70;99.90;;;;;;4982013;28;20041;-67
2022/11/24 06:30:07;;;;;;;23.02;4.22;;;7.70;99.90;;;;;;4977322;28;20043;-67
2022/11/24 06:32:33;;;;;;;16.48;3.75;;;7.60;99.90;;;;;;4982754;28;20034;-67
2022/11/24 06:34:58;;;;;;;18.98;2.85;;;7.60;99.90;;;;;;4979437;28;20378;-67
2022/11/24 06:37:24;;;;;;;13.85;2.33;;;7.60;99.90;;;;;;4977303;28;20302;-67
2022/11/24 06:39:49;;;;;;;24.40;4.20;;;7.60;99.90;;;;;;4987739;28;21525;-67
2022/11/24 06:42:18;;;;;;;17.77;3.40;;;7.60;99.90;;;;;;4983369;28;20041;-67
2022/11/24 06:44:47;;;;;;;18.55;2.45;;;7.50;99.90;;;;;;4988557;28;20034;-67
2022/11/24 06:47:13;;;;;;;10.98;2.50;;;7.50;99.90;;;;;;4976385;28;20019;-68
2022/11/24 06:49:39;;;;;;;13.07;2.00;;;7.50;99.90;;;;;;4980739;28;20027;-67
2022/11/24 06:52:05;;;;;;;18.38;4.28;;;7.50;99.90;;;;;;4981570;28;20101;-68
2022/11/24 06:54:31;;;;;;;9.48;2.00;;;7.50;99.90;;;;;;4989124;28;20048;-68
2022/11/24 06:56:57;;;;;;;13.68;2.25;;;7.40;99.90;;;;;;4982497;28;20081;-67
2022/11/24 06:59:23;;;;;;;12.25;1.90;;;7.40;99.90;;;;;;4989828;28;20030;-67
2022/11/24 07:01:48;;;;;;;25.67;3.20;;;7.50;99.90;;;;;;4986951;28;20110;-67
2022/11/24 07:04:14;;;;;;;19.25;3.45;;;7.40;99.90;;;;;;4976761;28;20496;-68
2022/11/24 07:06:40;;;;;;;14.02;2.85;;;7.40;99.90;;;;;;4970147;28;20562;-67
2022/11/24 07:09:08;;;;;;;12.50;1.95;;;7.40;99.90;;;;;;4981787;28;20026;-67
2022/11/24 07:11:34;;;;;;;21.58;3.10;;;7.30;99.90;;;;;;4990620;28;20026;-68
2022/11/24 07:14:00;;;;;;;12.88;2.63;;;7.30;99.90;;;;;;4974723;28;20019;-67
2022/11/24 07:16:26;;;;;;;13.63;2.15;;;7.30;99.90;;;;;;4983224;28;20092;-68
2022/11/24 07:18:53;;;;;;;15.57;3.70;;;7.30;99.90;;;;;;4980394;28;20515;-68
2022/11/24 07:21:20;;;;;;;18.67;2.95;;;7.30;99.90;;;;;;4978135;28;20117;-68
2022/11/24 07:23:51;;;;;;;19.58;3.50;;;7.30;99.90;;;;;;4987089;28;20034;-68
2022/11/24 07:26:17;;;;;;;22.00;3.72;;;7.30;99.90;;;;;;4980314;28;20041;-67
2022/11/24 07:28:43;;;;;;;23.17;3.83;;;7.40;99.90;;;;;;4967686;28;20026;-68
2022/11/24 07:31:11;;;;;;;20.25;3.28;;;7.40;99.90;;;;;;4982532;28;20391;-67
2022/11/24 07:33:37;;;;;;;10.18;2.63;;;7.30;99.90;;;;;;4985092;28;20034;-68
2022/11/24 07:36:04;;;;;;;22.80;3.22;;;7.30;99.90;;;;;;4976927;28;20689;-68
2022/11/24 07:38:31;;;;;;;15.57;3.08;;;7.40;99.90;;;;;;4975086;28;20030;-68
2022/11/24 07:41:01;;;;;;;16.00;2.97;;;7.40;99.90;;;;;;4980815;28;20073;-69
2022/11/24 07:43:27;;;;;;;16.65;2.90;;;7.40;99.90;;;;;;4981779;28;20018;-67
2022/11/24 07:45:53;;;;;;;20.55;2.85;;;7.40;99.90;;;;;;4980095;28;20085;-67
2022/11/24 07:48:19;;;;;;;22.08;3.20;;;7.40;99.90;;;;;;4984252;28;20035;-68
2022/11/24 07:50:44;;;;;;;14.25;2.55;;;7.40;99.90;;;;;;4975148;28;20061;-67
2022/11/24 07:53:10;;;;;;;15.55;2.50;;;7.40;99.90;;;;;;4985302;28;20025;-68
2022/11/24 07:55:36;;;;;;;12.90;2.55;;;7.30;99.90;;;;;;4977801;28;20018;-68
2022/11/24 07:58:01;;;;;;;17.67;2.17;;;7.20;99.90;;;;;;4981915;28;20066;-68
2022/11/24 08:00:27;;;;;;;13.68;2.40;;;7.20;99.90;;;;;;4976735;28;20512;-67
2022/11/24 08:02:53;;;;;;;15.10;2.67;;;7.20;99.90;;;;;;4984467;28;20031;-68
2022/11/24 08:05:19;;;;;;;20.17;3.10;;;7.20;99.90;;;;;;4959165;28;20074;-68
2022/11/24 08:07:44;;;;;;;15.73;2.92;;;7.20;99.90;;;;;;4982811;28;20120;-67
2022/11/24 08:10:10;;;;;;;8.02;2.10;;;7.30;99.90;;;;;;4983698;28;20397;-68
2022/11/24 08:12:36;;;;;;;15.45;2.38;;;7.30;99.90;;;;;;4984222;28;20061;-68
2022/11/24 08:15:01;;;;;;;10.32;2.60;;;7.30;99.90;;;;;;4987449;28;20645;-68
2022/11/24 08:17:27;;;;;;;15.43;1.92;;;7.30;99.90;;;;;;4973870;28;20031;-68
2022/11/24 08:19:53;;;;;;;9.35;2.22;;;7.30;99.90;;;;;;4979813;28;20030;-68
2022/11/24 08:22:18;;;;;;;9.48;2.17;;;7.30;99.90;;;;;;4979341;28;20034;-68
2022/11/24 08:24:47;;;;;;;12.05;1.88;;;7.30;99.90;;;;;;4985729;28;20030;-68
2022/11/24 08:27:14;;;;;;;16.38;1.90;;;7.30;99.90;;;;;;4977994;28;20045;-68
2022/11/24 08:29:40;;;;;;;9.20;1.80;;;7.40;99.90;;;;;;4982994;28;20038;-68
2022/11/24 08:32:06;;;;;;;47.90;17.55;;;7.40;99.90;;;;;;4976595;28;20038;-67
2022/11/24 08:34:31;;;;;;;30.65;8.60;;;7.50;99.90;;;;;;4982990;28;20511;-68
2022/11/24 08:36:57;;;;;;;13.10;5.43;;;7.50;99.90;;;;;;4978742;28;20034;-68
2022/11/24 08:39:23;;;;;;;17.27;6.50;;;7.50;99.90;;;;;;4990979;28;20030;-68
2022/11/24 08:41:48;;;;;;;19.35;10.40;;;7.60;99.90;;;;;;4998564;28;20102;-68
2022/11/24 08:44:16;;;;;;;32.25;16.73;;;7.60;99.90;;;;;;4988145;28;20034;-68
2022/11/24 08:46:42;;;;;;;48.95;27.75;;;7.60;99.90;;;;;;4972519;28;20035;-68
2022/11/24 08:49:08;;;;;;;29.08;18.45;;;7.60;99.90;;;;;;4979635;28;20045;-68
2022/11/24 08:51:34;;;;;;;20.65;11.00;;;7.70;99.90;;;;;;4977081;28;20026;-68
2022/11/24 08:54:01;;;;;;;19.45;13.52;;;7.70;99.90;;;;;;4979078;28;20026;-67
2022/11/24 08:56:29;;;;;;;13.07;4.55;;;7.80;99.90;;;;;;4971013;28;20023;-68
2022/11/24 08:58:55;;;;;;;6.45;2.90;;;7.80;99.90;;;;;;4973246;28;20496;-67
2022/11/24 09:01:22;;;;;;;7.55;2.67;;;7.80;99.90;;;;;;4985679;28;20061;-67
2022/11/24 09:03:49;;;;;;;7.63;2.42;;;7.90;99.90;;;;;;4986453;28;20045;-68
2022/11/24 09:06:16;;;;;;;11.35;1.67;;;8.00;99.90;;;;;;4966671;28;20137;-68
2022/11/24 09:08:41;;;;;;;6.32;1.75;;;8.00;99.90;;;;;;4982409;28;20674;-67
2022/11/24 09:11:09;;;;;;;4.50;1.40;;;8.00;99.90;;;;;;4977684;28;20046;-68
2022/11/24 09:13:37;;;;;;;13.13;1.70;;;8.10;99.90;;;;;;4980677;28;20042;-68
2022/11/24 09:16:09;;;;;;;8.23;1.40;;;8.10;99.90;;;;;;4983695;28;20049;-68
2022/11/24 09:18:35;;;;;;;8.45;1.75;;;8.20;99.90;;;;;;4982851;28;20030;-68
2022/11/24 09:21:18;;;;;;;8.00;1.75;;;8.20;99.90;;;;;;4987672;28;20439;-68
2022/11/24 09:23:47;;;;;;;6.47;2.10;;;8.30;99.90;;;;;;4979696;28;20030;-68
2022/11/24 09:26:15;;;;;;;6.07;1.88;;;8.40;99.90;;;;;;4988801;28;20031;-68
2022/11/24 09:28:41;;;;;;;7.10;1.90;;;8.40;99.90;;;;;;4986292;28;20077;-68
2022/11/24 09:31:09;;;;;;;8.88;2.10;;;8.50;99.90;;;;;;4978519;28;20587;-68
2022/11/24 09:33:35;;;;;;;8.30;2.55;;;8.60;99.90;;;;;;4983866;28;20030;-68
2022/11/24 09:36:02;;;;;;;8.40;1.23;;;8.60;99.90;;;;;;4979607;28;20510;-67
2022/11/24 09:38:27;;;;;;;13.95;3.00;;;8.60;99.90;;;;;;4978391;28;20038;-68
2022/11/24 09:40:53;;;;;;;5.78;2.53;;;8.60;99.90;;;;;;4971578;28;20026;-68
2022/11/24 09:43:40;;;;;;;9.38;2.88;;;8.70;99.90;;;;;;4979143;28;20084;-67
2022/11/24 09:46:26;;;;;;;7.05;1.90;;;8.60;99.90;;;;;;4979693;28;20037;-68
2022/11/24 09:48:54;;;;;;;9.25;2.20;;;8.80;99.90;;;;;;4975870;28;20109;-68
2022/11/24 09:51:24;;;;;;;6.22;3.38;;;8.90;99.90;;;;;;4983293;28;20121;-68
2022/11/24 09:53:58;;;;;;;8.52;2.85;;;8.90;99.90;;;;;;4979748;28;20093;-68
2022/11/24 09:56:26;;;;;;;15.70;3.30;;;8.90;99.90;;;;;;4972410;28;20464;-68
2022/11/24 09:59:14;;;;;;;12.50;7.00;;;8.90;99.90;;;;;;4973217;28;20118;-69
2022/11/24 10:01:42;;;;;;;20.42;7.45;;;8.80;99.90;;;;;;4983434;28;20026;-68
2022/11/24 10:04:31;;;;;;;14.95;6.43;;;8.90;99.90;;;;;;4984289;28;20049;-68
2022/11/24 10:07:15;;;;;;;18.85;8.23;;;8.90;99.90;;;;;;4961165;28;20427;-68
2022/11/24 10:10:02;;;;;;;10.27;3.08;;;8.90;99.90;;;;;;4979005;28;20124;-69
2022/11/24 10:12:59;;;;;;;8.93;2.63;;;9.00;99.90;;;;;;4983955;28;20433;-68
2022/11/24 10:15:45;;;;;;;16.83;4.38;;;9.10;99.90;;;;;;4988372;28;20038;-68
2022/11/24 10:18:26;;;;;;;10.52;2.03;;;9.20;99.90;;;;;;4983906;28;20449;-68
2022/11/24 10:21:00;;;;;;;13.98;3.90;;;9.40;99.90;;;;;;4973648;28;20057;-68
2022/11/24 10:23:44;;;;;;;13.32;2.90;;;9.40;99.90;;;;;;4980979;28;20050;-68
2022/11/24 10:26:33;;;;;;;17.33;4.00;;;9.50;99.90;;;;;;4982424;28;20105;-68
2022/11/24 10:29:00;;;;;;;14.35;4.13;;;9.60;99.90;;;;;;4984273;28;20489;-68
2022/11/24 10:31:35;;;;;;;21.10;4.25;;;9.70;99.90;;;;;;4978302;28;20036;-68
2022/11/24 10:34:11;;;;;;;36.55;8.90;;;9.80;99.90;;;;;;4976973;28;20211;-67
2022/11/24 10:36:42;;;;;;;46.33;12.80;;;9.90;99.90;;;;;;4982746;28;20515;-68
2022/11/24 10:39:29;;;;;;;48.63;15.68;;;10.20;99.90;;;;;;4977468;28;20054;-68
2022/11/24 10:42:11;;;;;;;30.15;10.95;;;10.50;99.90;;;;;;4982917;28;20488;-68
2022/11/24 10:44:37;;;;;;;40.35;13.63;;;10.90;99.90;;;;;;4989981;28;20542;-70
2022/11/24 10:47:08;;;;;;;21.98;6.32;;;11.00;99.90;;;;;;4975394;28;20033;-68
2022/11/24 10:49:34;;;;;;;24.95;5.05;;;10.90;99.90;;;;;;4982009;28;20033;-68
2022/11/24 10:52:12;;;;;;;15.15;4.45;;;10.80;99.90;;;;;;4979839;28;20023;-68
2022/11/24 10:54:56;;;;;;;12.77;3.55;;;10.80;99.90;;;;;;4980872;28;20035;-68
2022/11/24 10:57:37;;;;;;;9.40;2.50;;;10.70;99.90;;;;;;4978173;28;20507;-68
2022/11/24 11:00:17;;;;;;;12.15;2.28;;;10.50;99.90;;;;;;4984510;28;20030;-69
2022/11/24 11:02:44;;;;;;;11.77;2.00;;;10.40;99.90;;;;;;4973922;28;20041;-68
2022/11/24 11:05:28;;;;;;;11.88;2.10;;;10.40;99.90;;;;;;4986246;28;20030;-68
2022/11/24 11:08:12;;;;;;;15.93;2.63;;;10.50;99.90;;;;;;4980302;28;20049;-67
2022/11/24 11:10:37;;;;;;;8.95;1.80;;;10.60;99.90;;;;;;4976766;28;20103;-68
2022/11/24 11:13:20;;;;;;;13.25;2.50;;;10.60;99.90;;;;;;4978060;28;20039;-68
2022/11/24 11:15:46;;;;;;;12.60;2.53;;;10.50;99.90;;;;;;4978940;28;20026;-68
2022/11/24 11:18:16;;;;;;;11.20;2.22;;;10.30;99.90;;;;;;4981603;28;20675;-69
2022/11/24 11:20:49;;;;;;;10.38;2.20;;;10.20;99.90;;;;;;4982296;28;20022;-67
2022/11/24 11:23:27;;;;;;;13.18;1.80;;;10.20;99.90;;;;;;4977677;28;20459;-68
2022/11/24 11:26:23;;;;;;;21.90;5.18;;;10.30;99.90;;;;;;4984370;28;20030;-67
2022/11/24 11:29:21;;;;;;;10.05;3.65;;;10.30;99.90;;;;;;4986796;28;20011;-68
2022/11/24 11:32:15;;;;;;;14.68;3.60;;;10.30;99.90;;;;;;4977140;28;20034;-67
2022/11/24 11:34:41;;;;;;;16.50;3.13;;;10.40;99.90;;;;;;4985861;28;20027;-67
2022/11/24 11:37:11;;;;;;;17.80;2.60;;;10.30;99.90;;;;;;4975123;28;20406;-68
2022/11/24 11:39:46;;;;;;;15.77;2.22;;;10.30;99.90;;;;;;4978513;28;20531;-68
2022/11/24 11:42:32;;;;;;;9.98;2.45;;;10.40;99.90;;;;;;4981523;28;20030;-68
2022/11/24 11:45:14;;;;;;;15.27;2.40;;;10.20;99.90;;;;;;4977595;28;20668;-69
2022/11/24 11:48:00;;;;;;;10.32;2.55;;;10.20;99.90;;;;;;4976838;28;20038;-68
2022/11/24 11:50:39;;;;;;;11.30;2.38;;;10.30;99.90;;;;;;4983576;28;20451;-68
2022/11/24 11:53:26;;;;;;;15.57;4.25;;;10.40;99.90;;;;;;4984588;28;20030;-68
2022/11/24 11:56:27;;;;;;;9.63;2.13;;;10.50;99.90;;;;;;4980408;28;20076;-68
2022/11/24 11:59:17;;;;;;;12.57;2.78;;;10.40;99.90;;;;;;4993318;28;20109;-68
2022/11/24 12:02:21;;;;;;;13.02;2.20;;;10.50;99.90;;;;;;4987241;28;20092;-68
2022/11/24 12:04:57;;;;;;;10.30;2.50;;;10.60;99.90;;;;;;4981237;28;20030;-68
2022/11/24 12:07:39;;;;;;;18.90;2.47;;;10.70;99.90;;;;;;4965138;28;20061;-68
2022/11/24 12:10:20;;;;;;;15.10;2.83;;;10.70;99.90;;;;;;4984910;28;20030;-68
2022/11/24 12:13:30;;;;;;;8.73;1.60;;;10.80;99.90;;;;;;4978343;28;20030;-68
2022/11/24 12:16:03;;;;;;;14.23;2.42;;;10.90;99.90;;;;;;4980996;28;20031;-68
2022/11/24 12:18:52;;;;;;;9.93;1.88;;;10.90;99.90;;;;;;4976240;28;20034;-68
2022/11/24 12:21:32;;;;;;;14.63;2.78;;;10.90;99.90;;;;;;4978762;28;20048;-68
2022/11/24 12:24:16;;;;;;;13.10;2.72;;;10.90;99.90;;;;;;4973778;28;20030;-68
2022/11/24 12:26:56;;;;;;;18.63;3.60;;;10.90;99.90;;;;;;4977129;28;20444;-68
2022/11/24 12:29:47;;;;;;;13.20;2.95;;;10.90;99.90;;;;;;4988391;28;20042;-69
2022/11/24 12:32:37;;;;;;;12.90;4.50;;;10.80;99.90;;;;;;4985017;28;20106;-70
2022/11/24 12:35:21;;;;;;;12.90;2.47;;;10.60;99.90;;;;;;4987576;28;20030;-68
2022/11/24 12:37:49;;;;;;;10.48;3.67;;;10.50;99.90;;;;;;4977466;28;20093;-68
2022/11/24 12:40:24;;;;;;;13.80;3.08;;;10.40;99.90;;;;;;4987559;28;20077;-68
2022/11/24 12:43:01;;;;;;;10.88;3.92;;;10.50;99.90;;;;;;4979760;28;20150;-67
2022/11/24 12:45:50;;;;;;;17.75;3.80;;;10.50;99.90;;;;;;4982378;28;20034;-68
2022/11/24 12:48:23;;;;;;;19.15;3.42;;;10.70;99.90;;;;;;4979475;28;20053;-68
2022/11/24 12:50:52;;;;;;;12.82;4.57;;;10.80;99.90;;;;;;4982128;28;20037;-67
2022/11/24 12:53:23;;;;;;;20.30;7.25;;;10.90;99.90;;;;;;4976742;28;20726;-66
2022/11/24 12:55:49;;;;;;;19.10;5.30;;;11.00;99.90;;;;;;4981658;28;20022;-66
2022/11/24 12:58:38;;;;;;;19.08;7.70;;;11.00;99.90;;;;;;4982127;28;20018;-67
2022/11/24 13:01:28;;;;;;;20.75;3.83;;;11.00;99.90;;;;;;4980683;28;20028;-67